createdAt,value
2018-08-17T00:00:03.664Z,101075.83
2018-08-17T00:02:31.814Z,101081.60
2018-08-17T00:04:59.943Z,101075.84
2018-08-17T00:07:28.612Z,101072.61
2018-08-17T00:09:56.756Z,101065.75
2018-08-17T00:12:24.887Z,101068.02
2018-08-17T00:14:53.039Z,101069.94
2018-08-17T00:17:21.171Z,101074.27
2018-08-17T00:19:49.330Z,101062.75
2018-08-17T00:22:17.469Z,101062.96
2018-08-17T00:24:45.682Z,101059.82
2018-08-17T00:27:13.785Z,101062.95
2018-08-17T00:29:41.940Z,101053.20
2018-08-17T00:32:10.123Z,101048.62
2018-08-17T00:34:38.303Z,101048.17
2018-08-17T00:37:06.464Z,101045.28
2018-08-17T00:39:34.619Z,101043.97
2018-08-17T00:42:02.811Z,101044.55
2018-08-17T00:44:30.959Z,101050.44
2018-08-17T00:46:59.076Z,101053.55
2018-08-17T00:49:27.216Z,101050.45
2018-08-17T00:52:02.457Z,101051.76
2018-08-17T00:54:30.656Z,101052.59
2018-08-17T00:56:58.826Z,101055.34
2018-08-17T00:59:27.425Z,101050.17
2018-08-17T01:01:55.600Z,101052.45
2018-08-17T01:04:23.761Z,101058.48
2018-08-17T01:06:51.927Z,101051.63
2018-08-17T01:09:20.105Z,101045.86
2018-08-17T01:11:48.281Z,101048.84
2018-08-17T01:14:16.511Z,101051.69
2018-08-17T01:16:44.680Z,101051.86
2018-08-17T01:19:12.866Z,101057.92
2018-08-17T01:21:41.043Z,101050.23
2018-08-17T01:24:09.214Z,101054.98
2018-08-17T01:26:37.406Z,101057.67
2018-08-17T01:29:05.578Z,101060.17
2018-08-17T01:31:33.764Z,101058.30
2018-08-17T01:34:01.971Z,101062.58
2018-08-17T01:36:30.177Z,101070.76
2018-08-17T01:38:58.343Z,101065.11
2018-08-17T01:41:26.510Z,101057.20
2018-08-17T01:43:54.676Z,101055.51
2018-08-17T01:46:22.856Z,101060.20
2018-08-17T01:48:51.031Z,101062.03
2018-08-17T01:51:19.224Z,101060.05
2018-08-17T01:53:47.381Z,101061.16
2018-08-17T01:56:15.548Z,101059.58
2018-08-17T01:58:44.520Z,101061.99
2018-08-17T02:01:12.737Z,101062.22
2018-08-17T02:03:40.921Z,101070.50
2018-08-17T02:06:09.105Z,101070.50
2018-08-17T02:08:37.273Z,101068.70
2018-08-17T02:11:05.447Z,101067.50
2018-08-17T02:13:33.636Z,101065.22
2018-08-17T02:16:01.800Z,101067.02
2018-08-17T02:18:29.938Z,101068.41
2018-08-17T02:20:58.126Z,101063.72
2018-08-17T02:23:26.292Z,101060.90
2018-08-17T02:25:55.148Z,101065.59
2018-08-17T02:28:23.436Z,101055.98
2018-08-17T02:30:51.634Z,101060.64
2018-08-17T02:33:19.802Z,101059.20
2018-08-17T02:35:48.032Z,101055.00
2018-08-17T02:38:16.265Z,101057.52
2018-08-17T02:40:44.442Z,101063.23
2018-08-17T02:43:12.732Z,101054.95
2018-08-17T02:45:40.910Z,101045.60
2018-08-17T02:48:09.070Z,101050.89
2018-08-17T02:50:37.264Z,101056.05
2018-08-17T02:53:06.313Z,101058.80
2018-08-17T02:55:34.483Z,101051.47
2018-08-17T02:58:02.618Z,101054.00
2018-08-17T03:00:30.770Z,101050.63
2018-08-17T03:02:58.942Z,101051.58
2018-08-17T03:05:27.069Z,101052.74
2018-08-17T03:07:55.226Z,101056.53
2018-08-17T03:10:23.385Z,101050.41
2018-08-17T03:12:52.110Z,101056.91
2018-08-17T03:15:20.254Z,101059.41
2018-08-17T03:17:48.412Z,101053.79
2018-08-17T03:20:16.603Z,101060.59
2018-08-17T03:22:44.747Z,101058.92
2018-08-17T03:25:12.915Z,101066.12
2018-08-17T03:27:41.083Z,101066.45
2018-08-17T03:30:09.225Z,101065.77
2018-08-17T03:32:37.386Z,101071.19
2018-08-17T03:35:05.897Z,101073.20
2018-08-17T03:37:34.018Z,101073.98
2018-08-17T03:40:02.213Z,101078.31
2018-08-17T03:42:30.442Z,101081.69
2018-08-17T03:44:58.581Z,101086.72
2018-08-17T03:47:26.776Z,101089.49
2018-08-17T03:49:54.941Z,101090.91
2018-08-17T03:52:23.083Z,101092.44
2018-08-17T03:54:51.205Z,101096.19
2018-08-17T03:57:19.354Z,101090.65
2018-08-17T03:59:47.535Z,101091.50
2018-08-17T04:02:15.692Z,101096.19
2018-08-17T04:04:43.840Z,101101.46
2018-08-17T04:07:11.995Z,101100.06
2018-08-17T04:09:40.125Z,101099.69
2018-08-17T04:12:08.297Z,101101.36
2018-08-17T04:14:36.434Z,101107.28
2018-08-17T04:17:04.583Z,101108.47
2018-08-17T04:19:32.720Z,101110.89
2018-08-17T04:22:00.862Z,101112.15
2018-08-17T04:24:29.015Z,101116.34
2018-08-17T04:26:57.202Z,101115.26
2018-08-17T04:29:25.352Z,101118.96
2018-08-17T04:31:53.518Z,101124.77
2018-08-17T04:34:22.224Z,101121.84
2018-08-17T04:36:50.342Z,101129.99
2018-08-17T04:39:18.503Z,101129.70
2018-08-17T04:41:46.646Z,101131.38
2018-08-17T04:44:14.820Z,101132.17
2018-08-17T04:46:42.988Z,101135.00
2018-08-17T04:49:11.119Z,101140.69
2018-08-17T04:51:39.288Z,101144.92
2018-08-17T04:54:07.452Z,101151.50
2018-08-17T04:56:35.605Z,101156.52
2018-08-17T04:59:03.764Z,101155.40
2018-08-17T05:01:31.930Z,101157.18
2018-08-17T05:04:00.098Z,101169.09
2018-08-17T05:06:28.264Z,101155.44
2018-08-17T05:08:56.463Z,101155.92
2018-08-17T05:11:24.596Z,101158.27
2018-08-17T05:13:52.801Z,101164.64
2018-08-17T05:16:20.965Z,101164.27
2018-08-17T05:18:49.128Z,101165.34
2018-08-17T05:21:17.329Z,101168.94
2018-08-17T05:23:45.506Z,101170.95
2018-08-17T05:26:13.625Z,101176.81
2018-08-17T05:28:41.806Z,101170.05
2018-08-17T05:31:09.942Z,101169.33
2018-08-17T05:33:38.087Z,101163.08
2018-08-17T05:36:06.328Z,101164.66
2018-08-17T05:38:34.983Z,101175.34
2018-08-17T05:41:03.150Z,101165.08
2018-08-17T05:43:31.314Z,101161.41
2018-08-17T05:45:59.487Z,101161.18
2018-08-17T05:48:28.484Z,101171.06
2018-08-17T05:50:56.638Z,101172.84
2018-08-17T05:53:24.805Z,101165.30
2018-08-17T05:55:52.998Z,101169.95
2018-08-17T05:58:21.173Z,101151.72
2018-08-17T06:00:49.417Z,101168.30
2018-08-17T06:03:17.575Z,101173.59
2018-08-17T06:05:45.727Z,101167.92
2018-08-17T06:08:13.921Z,101167.14
2018-08-17T06:10:42.122Z,101179.82
2018-08-17T06:13:10.287Z,101169.31
2018-08-17T06:15:38.431Z,101167.01
2018-08-17T06:18:06.661Z,101169.09
2018-08-17T06:20:34.830Z,101172.30
2018-08-17T06:23:03.136Z,101177.11
2018-08-17T06:25:31.342Z,101175.16
2018-08-17T06:27:59.499Z,101174.95
2018-08-17T06:30:27.709Z,101179.09
2018-08-17T06:32:55.881Z,101185.99
2018-08-17T06:35:24.057Z,101189.45
2018-08-17T06:37:52.209Z,101184.20
2018-08-17T06:40:20.400Z,101183.08
2018-08-17T06:42:48.581Z,101178.43
2018-08-17T06:45:16.757Z,101184.67
2018-08-17T06:47:44.951Z,101189.17
2018-08-17T06:50:13.214Z,101179.87
2018-08-17T06:52:42.348Z,101185.53
2018-08-17T06:55:11.562Z,101188.93
2018-08-17T06:57:40.137Z,101192.57
2018-08-17T07:00:10.780Z,101185.64
2018-08-17T07:02:39.158Z,101182.79
2018-08-17T07:05:07.557Z,101189.34
2018-08-17T07:07:35.751Z,101184.98
2018-08-17T07:10:04.423Z,101185.15
2018-08-17T07:12:32.587Z,101175.27
2018-08-17T07:15:00.766Z,101178.12
2018-08-17T07:17:29.043Z,101186.30
2018-08-17T07:19:57.219Z,101182.93
2018-08-17T07:22:25.390Z,101184.33
2018-08-17T07:24:53.636Z,101189.14
2018-08-17T07:27:22.201Z,101187.08
2018-08-17T07:29:50.541Z,101200.52
2018-08-17T07:32:18.796Z,101195.98
2018-08-17T07:34:46.994Z,101189.67
2018-08-17T07:37:15.145Z,101203.39
2018-08-17T07:39:43.343Z,101208.42
2018-08-17T07:42:22.993Z,101209.63
2018-08-17T07:44:51.212Z,101214.08
2018-08-17T07:47:19.384Z,101215.02
2018-08-17T07:49:47.566Z,101216.84
2018-08-17T07:52:15.741Z,101214.53
2018-08-17T07:54:43.920Z,101220.66
2018-08-17T07:57:12.140Z,101225.59
2018-08-17T07:59:40.351Z,101220.70
2018-08-17T08:02:08.505Z,101221.14
2018-08-17T08:04:36.689Z,101219.56
2018-08-17T08:07:04.897Z,101227.69
2018-08-17T08:09:33.144Z,101232.27
2018-08-17T08:12:01.304Z,101221.16
2018-08-17T08:14:29.500Z,101227.53
2018-08-17T08:16:58.106Z,101226.77
2018-08-17T08:19:26.263Z,101226.05
2018-08-17T08:21:54.446Z,101227.69
2018-08-17T08:24:22.593Z,101228.70
2018-08-17T08:26:51.007Z,101231.89
2018-08-17T08:29:19.239Z,101235.08
2018-08-17T08:31:47.672Z,101246.23
2018-08-17T08:34:15.872Z,101245.64
2018-08-17T08:36:44.103Z,101251.37
2018-08-17T08:39:13.525Z,101253.20
2018-08-17T08:41:41.670Z,101247.41
2018-08-17T08:44:09.838Z,101252.72
2018-08-17T08:46:38.462Z,101245.45
2018-08-17T08:49:06.772Z,101250.83
2018-08-17T08:51:35.074Z,101255.55
2018-08-17T08:54:03.848Z,101255.09
2018-08-17T08:56:32.295Z,101252.07
2018-08-17T08:59:00.441Z,101241.62
2018-08-17T09:01:28.867Z,101241.96
2018-08-17T09:03:57.199Z,101244.88
2018-08-17T09:06:25.372Z,101251.98
2018-08-17T09:08:53.523Z,101250.83
2018-08-17T09:11:21.687Z,101256.34
2018-08-17T09:13:49.843Z,101251.53
2018-08-17T09:16:17.928Z,101252.42
2018-08-17T09:18:46.181Z,101247.63
2018-08-17T09:21:14.337Z,101246.02
2018-08-17T09:23:42.488Z,101252.83
2018-08-17T09:26:10.619Z,101254.47
2018-08-17T09:28:38.855Z,101256.56
2018-08-17T09:31:07.358Z,101257.70
2018-08-17T09:33:35.690Z,101264.59
2018-08-17T09:36:03.880Z,101273.94
2018-08-17T09:38:32.022Z,101270.27
2018-08-17T09:41:01.156Z,101273.88
2018-08-17T09:43:29.276Z,101275.64
2018-08-17T09:45:57.422Z,101271.20
2018-08-17T09:48:25.577Z,101272.87
2018-08-17T09:50:53.711Z,101285.11
2018-08-17T09:53:21.868Z,101287.63
2018-08-17T09:55:50.011Z,101292.22
2018-08-17T09:58:18.136Z,101296.19
2018-08-17T10:00:51.675Z,101300.12
2018-08-17T10:03:25.171Z,101297.13
2018-08-17T10:05:58.599Z,101309.06
2018-08-17T10:08:32.725Z,101306.60
2018-08-17T10:11:00.997Z,101305.55
2018-08-17T10:13:29.748Z,101312.88
2018-08-17T10:15:57.874Z,101311.71
2018-08-17T10:18:30.826Z,101309.34
2018-08-17T10:20:58.982Z,101305.73
2018-08-17T10:23:27.068Z,101306.38
2018-08-17T10:25:55.223Z,101304.91
2018-08-17T10:28:23.366Z,101301.06
2018-08-17T10:30:51.540Z,101310.00
2018-08-17T10:33:19.741Z,101304.55
2018-08-17T10:35:47.865Z,101311.32
2018-08-17T10:38:16.005Z,101314.50
2018-08-17T10:40:44.208Z,101318.95
2018-08-17T10:43:12.858Z,101326.18
2018-08-17T10:45:41.053Z,101321.14
2018-08-17T10:48:09.281Z,101320.50
2018-08-17T10:50:37.394Z,101322.16
2018-08-17T10:53:05.754Z,101312.69
2018-08-17T10:55:40.959Z,101313.00
2018-08-17T10:58:10.608Z,101300.92
2018-08-17T11:00:38.759Z,101297.74
2018-08-17T11:03:07.957Z,101297.26
2018-08-17T11:05:36.116Z,101302.17
2018-08-17T11:08:05.309Z,101307.44
2018-08-17T11:10:33.422Z,101314.45
2018-08-17T11:13:01.573Z,101314.39
2018-08-17T11:15:29.767Z,101319.72
2018-08-17T11:17:58.734Z,101326.70
2018-08-17T11:20:26.881Z,101334.02
2018-08-17T11:22:55.039Z,101333.27
2018-08-17T11:25:23.137Z,101318.68
2018-08-17T11:27:51.994Z,101316.14
2018-08-17T11:30:20.166Z,101329.58
2018-08-17T11:32:48.310Z,101326.51
2018-08-17T11:35:16.468Z,101328.25
2018-08-17T11:37:44.620Z,101325.52
2018-08-17T11:40:13.449Z,101335.87
2018-08-17T11:42:43.164Z,101332.80
2018-08-17T11:45:14.557Z,101345.72
2018-08-17T11:47:43.522Z,101344.81
2018-08-17T11:50:13.684Z,101332.56
2018-08-17T11:52:49.085Z,101330.79
2018-08-17T11:55:17.783Z,101327.42
2018-08-17T11:57:45.990Z,101341.92
2018-08-17T12:00:14.120Z,101341.58
2018-08-17T12:02:42.337Z,101347.73
2018-08-17T12:05:10.977Z,101344.48
2018-08-17T12:07:39.911Z,101350.75
2018-08-17T12:10:08.088Z,101354.70
2018-08-17T12:12:37.502Z,101344.23
2018-08-17T12:15:06.580Z,101352.78
2018-08-17T12:17:34.891Z,101342.45
2018-08-17T12:20:03.395Z,101338.20
2018-08-17T12:22:31.889Z,101337.92
2018-08-17T12:25:00.512Z,101344.84
2018-08-17T12:27:28.597Z,101337.92
2018-08-17T12:29:56.796Z,101336.14
2018-08-17T12:32:25.328Z,101331.06
2018-08-17T12:34:53.651Z,101337.53
2018-08-17T12:37:21.867Z,101341.47
2018-08-17T12:39:50.109Z,101341.30
2018-08-17T12:42:18.310Z,101339.63
2018-08-17T12:44:46.535Z,101339.55
2018-08-17T12:47:14.739Z,101336.14
2018-08-17T12:49:42.951Z,101347.72
2018-08-17T12:52:11.192Z,101339.39
2018-08-17T12:54:39.928Z,101342.41
2018-08-17T12:57:09.100Z,101346.84
2018-08-17T12:59:37.386Z,101337.97
2018-08-17T13:02:05.540Z,101338.93
2018-08-17T13:04:33.649Z,101336.64
2018-08-17T13:07:01.800Z,101330.88
2018-08-17T13:09:29.916Z,101338.39
2018-08-17T13:12:00.273Z,101340.83
2018-08-17T13:14:28.881Z,101340.87
2018-08-17T13:16:59.055Z,101341.42
2018-08-17T13:19:27.360Z,101344.20
2018-08-17T13:21:55.552Z,101341.41
2018-08-17T13:24:23.785Z,101341.42
2018-08-17T13:26:51.982Z,101345.48
2018-08-17T13:29:20.268Z,101343.39
2018-08-17T13:31:48.467Z,101341.36
2018-08-17T13:34:16.619Z,101344.02
2018-08-17T13:36:44.732Z,101348.23
2018-08-17T13:39:12.848Z,101355.58
2018-08-17T13:41:40.971Z,101356.49
2018-08-17T13:44:11.586Z,101356.91
2018-08-17T13:46:39.677Z,101363.84
2018-08-17T13:49:07.806Z,101365.40
2018-08-17T13:51:35.900Z,101364.20
2018-08-17T13:54:04.314Z,101358.73
2018-08-17T13:56:32.430Z,101367.56
2018-08-17T13:59:00.525Z,101368.88
2018-08-17T14:01:28.671Z,101371.21
2018-08-17T14:03:56.831Z,101368.45
2018-08-17T14:06:25.015Z,101359.22
2018-08-17T14:08:53.168Z,101359.92
2018-08-17T14:11:21.589Z,101366.73
2018-08-17T14:13:49.744Z,101364.73
2018-08-17T14:16:18.020Z,101360.66
2018-08-17T14:18:46.209Z,101361.42
2018-08-17T14:21:14.339Z,101362.22
2018-08-17T14:23:42.593Z,101356.83
2018-08-17T14:26:10.690Z,101355.41
2018-08-17T14:28:38.884Z,101358.34
2018-08-17T14:31:07.026Z,101360.38
2018-08-17T14:33:35.153Z,101360.09
2018-08-17T14:36:03.377Z,101365.64
2018-08-17T14:38:33.680Z,101364.44
2018-08-17T14:41:02.493Z,101368.27
2018-08-17T14:43:30.645Z,101370.06
2018-08-17T14:45:58.805Z,101371.14
2018-08-17T14:48:26.922Z,101373.89
2018-08-17T14:50:55.262Z,101371.45
2018-08-17T14:53:23.472Z,101364.09
2018-08-17T14:55:51.613Z,101361.42
2018-08-17T14:58:19.753Z,101360.45
2018-08-17T15:00:47.957Z,101359.09
2018-08-17T15:03:16.911Z,101362.23
2018-08-17T15:05:45.923Z,101369.23
2018-08-17T15:08:14.163Z,101365.79
2018-08-17T15:10:42.230Z,101365.52
2018-08-17T15:13:14.476Z,101365.52
2018-08-17T15:15:43.490Z,101366.72
2018-08-17T15:18:11.715Z,101371.39
2018-08-17T15:20:39.835Z,101363.25
2018-08-17T15:23:09.185Z,101373.13
2018-08-17T15:25:38.394Z,101374.59
2018-08-17T15:28:06.556Z,101375.66
2018-08-17T15:30:34.687Z,101372.25
2018-08-17T15:33:02.864Z,101376.59
2018-08-17T15:35:30.984Z,101372.77
2018-08-17T15:37:59.094Z,101372.08
2018-08-17T15:40:27.190Z,101377.73
2018-08-17T15:42:58.660Z,101381.96
2018-08-17T15:45:26.784Z,101379.34
2018-08-17T15:47:54.921Z,101375.72
2018-08-17T15:50:23.176Z,101380.55
2018-08-17T15:52:51.322Z,101389.52
2018-08-17T15:55:19.535Z,101383.10
2018-08-17T15:57:47.794Z,101384.23
2018-08-17T16:00:18.009Z,101378.85
2018-08-17T16:02:46.171Z,101382.97
2018-08-17T16:05:14.341Z,101382.19
2018-08-17T16:07:42.544Z,101379.25
2018-08-17T16:10:12.621Z,101383.36
2018-08-17T16:12:40.708Z,101389.03
2018-08-17T16:15:09.771Z,101380.55
2018-08-17T16:17:38.359Z,101381.70
2018-08-17T16:20:07.662Z,101382.68
2018-08-17T16:22:35.808Z,101393.51
2018-08-17T16:25:03.955Z,101382.34
2018-08-17T16:27:32.076Z,101380.70
2018-08-17T16:30:00.223Z,101381.55
2018-08-17T16:32:28.333Z,101392.24
2018-08-17T16:34:56.480Z,101388.68
2018-08-17T16:37:24.674Z,101387.19
2018-08-17T16:39:54.838Z,101392.31
2018-08-17T16:42:27.408Z,101391.13
2018-08-17T16:44:55.977Z,101391.23
2018-08-17T16:47:24.060Z,101388.15
2018-08-17T16:49:52.268Z,101390.06
2018-08-17T16:52:20.388Z,101391.65
2018-08-17T16:54:48.569Z,101389.63
2018-08-17T16:57:16.683Z,101391.44
2018-08-17T16:59:44.951Z,101392.59
2018-08-17T17:02:13.108Z,101394.45
2018-08-17T17:04:42.441Z,101394.33
2018-08-17T17:07:10.572Z,101391.52
2018-08-17T17:09:40.063Z,101390.58
2018-08-17T17:12:21.200Z,101397.59
2018-08-17T17:14:49.319Z,101399.30
2018-08-17T17:17:17.508Z,101394.71
2018-08-17T17:19:45.653Z,101386.59
2018-08-17T17:22:13.824Z,101393.92
2018-08-17T17:24:41.913Z,101397.78
2018-08-17T17:27:10.046Z,101389.66
2018-08-17T17:29:38.525Z,101390.80
2018-08-17T17:32:07.174Z,101393.82
2018-08-17T17:34:35.316Z,101400.00
2018-08-17T17:37:03.463Z,101396.73
2018-08-17T17:39:32.020Z,101395.83
2018-08-17T17:42:00.132Z,101399.81
2018-08-17T17:44:28.910Z,101405.52
2018-08-17T17:46:57.013Z,101401.64
2018-08-17T17:49:25.153Z,101405.89
2018-08-17T17:51:53.307Z,101401.06
2018-08-17T17:54:24.234Z,101410.35
2018-08-17T17:57:24.037Z,101407.27
2018-08-17T17:59:56.241Z,101404.27
2018-08-17T18:02:24.422Z,101405.72
2018-08-17T18:04:52.560Z,101406.94
2018-08-17T18:07:20.847Z,101407.67
2018-08-17T18:09:49.856Z,101415.06
2018-08-17T18:12:17.984Z,101414.59
2018-08-17T18:14:46.105Z,101419.92
2018-08-17T18:17:14.260Z,101419.80
2018-08-17T18:19:42.398Z,101421.38
2018-08-17T18:22:18.144Z,101425.22
2018-08-17T18:24:46.329Z,101424.27
2018-08-17T18:27:14.484Z,101423.16
2018-08-17T18:29:42.698Z,101424.98
2018-08-17T18:32:10.874Z,101426.66
2018-08-17T18:34:39.016Z,101424.84
2018-08-17T18:37:07.714Z,101425.76
2018-08-17T18:39:35.897Z,101425.16
2018-08-17T18:42:04.058Z,101431.05
2018-08-17T18:44:32.261Z,101431.84
2018-08-17T18:47:00.442Z,101438.11
2018-08-17T18:49:28.628Z,101444.22
2018-08-17T18:51:56.799Z,101437.06
2018-08-17T18:54:24.923Z,101443.91
2018-08-17T18:56:53.090Z,101443.66
2018-08-17T18:59:21.214Z,101446.00
2018-08-17T19:01:49.363Z,101448.76
2018-08-17T19:04:17.537Z,101442.44
2018-08-17T19:06:45.712Z,101460.84
2018-08-17T19:09:13.881Z,101459.18
2018-08-17T19:11:42.021Z,101462.99
2018-08-17T19:14:10.142Z,101461.40
2018-08-17T19:16:38.330Z,101464.26
2018-08-17T19:19:06.485Z,101460.03
2018-08-17T19:21:34.621Z,101462.36
2018-08-17T19:24:08.265Z,101467.05
2018-08-17T19:26:36.414Z,101466.78
2018-08-17T19:29:04.632Z,101469.27
2018-08-17T19:31:32.774Z,101475.25
2018-08-17T19:34:00.920Z,101473.39
2018-08-17T19:36:29.080Z,101480.19
2018-08-17T19:38:57.210Z,101473.89
2018-08-17T19:41:25.381Z,101478.72
2018-08-17T19:43:53.531Z,101482.25
2018-08-17T19:46:21.774Z,101482.08
2018-08-17T19:48:49.830Z,101485.98
2018-08-17T19:51:19.016Z,101483.47
2018-08-17T19:53:47.525Z,101490.28
2018-08-17T19:56:16.316Z,101494.17
2018-08-17T19:58:44.484Z,101495.66
2018-08-17T20:01:13.416Z,101498.88
2018-08-17T20:03:41.574Z,101501.25
2018-08-17T20:06:09.748Z,101506.91
2018-08-17T20:08:37.860Z,101513.36
2018-08-17T20:11:05.995Z,101512.92
2018-08-17T20:13:34.141Z,101515.48
2018-08-17T20:16:02.664Z,101519.55
2018-08-17T20:18:31.009Z,101521.76
2018-08-17T20:20:59.188Z,101522.70
2018-08-17T20:23:27.314Z,101517.72
2018-08-17T20:25:55.585Z,101528.28
2018-08-17T20:28:23.588Z,101532.53
2018-08-17T20:30:51.713Z,101525.95
2018-08-17T20:33:28.010Z,101524.11
2018-08-17T20:35:56.807Z,101527.79
2018-08-17T20:38:25.015Z,101532.98
2018-08-17T20:40:57.794Z,101534.59
2018-08-17T20:43:26.259Z,101535.19
2018-08-17T20:45:54.415Z,101534.63
2018-08-17T20:48:22.558Z,101543.11
2018-08-17T20:50:50.675Z,101540.47
2018-08-17T20:53:20.702Z,101544.24
2018-08-17T20:55:48.852Z,101548.80
2018-08-17T20:58:17.974Z,101548.98
2018-08-17T21:00:46.124Z,101551.63
2018-08-17T21:03:14.314Z,101560.00
2018-08-17T21:05:42.578Z,101555.95
2018-08-17T21:08:10.752Z,101555.47
2018-08-17T21:10:39.070Z,101559.89
2018-08-17T21:13:07.270Z,101559.33
2018-08-17T21:15:35.409Z,101553.86
2018-08-17T21:18:03.583Z,101557.53
2018-08-17T21:20:31.759Z,101562.08
2018-08-17T21:22:59.955Z,101562.15
2018-08-17T21:25:28.160Z,101565.44
2018-08-17T21:27:56.301Z,101568.91
2018-08-17T21:30:24.457Z,101573.83
2018-08-17T21:32:52.636Z,101572.13
2018-08-17T21:35:20.784Z,101574.85
2018-08-17T21:37:48.973Z,101576.34
2018-08-17T21:40:22.541Z,101568.80
2018-08-17T21:42:50.781Z,101580.19
2018-08-17T21:45:18.915Z,101577.55
2018-08-17T21:47:47.086Z,101572.94
2018-08-17T21:50:16.932Z,101577.55
2018-08-17T21:52:46.455Z,101570.97
2018-08-17T21:55:14.942Z,101584.52
2018-08-17T21:57:43.444Z,101571.81
2018-08-17T22:00:19.643Z,101564.09
2018-08-17T22:02:47.831Z,101564.56
2018-08-17T22:05:20.125Z,101563.80
2018-08-17T22:07:48.288Z,101566.81
2018-08-17T22:10:16.455Z,101573.58
2018-08-17T22:12:44.635Z,101567.94
2018-08-17T22:15:12.847Z,101580.26
2018-08-17T22:17:41.179Z,101575.55
2018-08-17T22:20:10.331Z,101581.16
2018-08-17T22:22:38.525Z,101576.28
2018-08-17T22:25:15.193Z,101584.53
2018-08-17T22:27:43.323Z,101584.23
2018-08-17T22:30:21.573Z,101582.88
2018-08-17T22:32:49.805Z,101583.09
2018-08-17T22:35:18.200Z,101588.52
2018-08-17T22:37:46.239Z,101590.27
2018-08-17T22:40:14.440Z,101595.91
2018-08-17T22:42:42.600Z,101596.63
2018-08-17T22:45:10.761Z,101596.20
2018-08-17T22:47:38.962Z,101597.22
2018-08-17T22:50:07.325Z,101599.34
2018-08-17T22:52:35.798Z,101598.66
2018-08-17T22:55:08.389Z,101604.50
2018-08-17T22:57:36.554Z,101598.63
2018-08-17T23:00:23.366Z,101600.63
2018-08-17T23:02:53.584Z,101602.83
2018-08-17T23:05:24.933Z,101600.14
2018-08-17T23:07:53.098Z,101603.59
2018-08-17T23:10:22.450Z,101603.84
2018-08-17T23:12:51.622Z,101606.17
2018-08-17T23:15:19.786Z,101604.23
2018-08-17T23:17:49.582Z,101606.86
2018-08-17T23:20:21.868Z,101607.87
2018-08-17T23:22:52.210Z,101613.37
2018-08-17T23:25:20.595Z,101610.27
2018-08-17T23:27:49.912Z,101612.56
2018-08-17T23:30:18.053Z,101616.35
2018-08-17T23:32:47.182Z,101613.64
2018-08-17T23:35:15.316Z,101615.66
2018-08-17T23:37:43.444Z,101611.41
2018-08-17T23:40:11.624Z,101610.64
2018-08-17T23:42:39.870Z,101611.19
2018-08-17T23:45:13.838Z,101607.41
2018-08-17T23:47:42.037Z,101611.23
2018-08-17T23:50:11.500Z,101612.86
2018-08-17T23:52:39.716Z,101612.47
2018-08-17T23:55:09.817Z,101612.24
2018-08-17T23:57:37.962Z,101613.17
